createdAt,value
2022-11-01T00:04:57.721Z,185.37
2022-11-01T00:09:59.464Z,205.07
2022-11-01T00:15:01.183Z,210.87
2022-11-01T00:20:02.950Z,206.77
2022-11-01T00:25:05.304Z,202.43
2022-11-01T00:30:07.264Z,196.47
2022-11-01T00:35:09.133Z,205.70
2022-11-01T00:40:11.324Z,211.47
2022-11-01T00:45:13.111Z,224.90
2022-11-01T00:50:14.904Z,239.60
2022-11-01T00:55:16.577Z,240.93
2022-11-01T01:00:18.277Z,241.63
2022-11-01T01:05:19.998Z,239.93
2022-11-01T01:10:21.736Z,226.60
2022-11-01T01:15:23.430Z,264.17
2022-11-01T01:20:25.183Z,262.83
2022-11-01T01:25:26.900Z,248.03
2022-11-01T01:30:28.619Z,257.90
2022-11-01T01:35:30.322Z,279.20
2022-11-01T01:40:32.699Z,248.50
2022-11-01T01:45:36.550Z,245.87
2022-11-01T01:50:39.984Z,271.20
2022-11-01T01:56:09.665Z,233.90
2022-11-01T02:01:11.484Z,224.60
2022-11-01T02:06:15.414Z,242.50
2022-11-01T02:11:17.337Z,246.07
2022-11-01T02:16:39.576Z,236.87
2022-11-01T02:21:46.601Z,219.37
2022-11-01T02:26:57.710Z,226.53
2022-11-01T02:32:24.123Z,223.90
2022-11-01T02:37:32.603Z,230.37
2022-11-01T02:42:37.066Z,249.60
2022-11-01T02:47:38.800Z,237.20
2022-11-01T02:52:40.829Z,232.93
2022-11-01T02:57:42.494Z,266.83
2022-11-01T03:02:44.425Z,241.83
2022-11-01T03:07:48.490Z,233.67
2022-11-01T03:13:05.690Z,247.97
2022-11-01T03:18:13.302Z,223.03
2022-11-01T03:23:35.979Z,239.40
2022-11-01T03:28:45.777Z,203.57
2022-11-01T03:33:58.170Z,200.50
2022-11-01T03:39:24.216Z,202.43
2022-11-01T03:44:25.874Z,206.73
2022-11-01T03:49:27.495Z,213.87
2022-11-01T03:54:29.206Z,194.73
2022-11-01T03:59:30.903Z,194.57
2022-11-01T04:04:32.486Z,176.03
2022-11-01T04:09:34.117Z,187.77
2022-11-01T04:14:54.378Z,200.07
2022-11-01T04:20:14.590Z,189.43
2022-11-01T04:25:16.257Z,184.90
2022-11-01T04:30:20.405Z,170.97
2022-11-01T04:35:22.366Z,182.47
2022-11-01T04:40:24.143Z,188.97
2022-11-01T04:45:25.916Z,183.03
2022-11-01T04:50:27.721Z,177.33
2022-11-01T04:55:29.570Z,179.90
2022-11-01T05:00:33.074Z,177.57
2022-11-01T05:05:35.129Z,163.33
2022-11-01T05:10:38.416Z,165.43
2022-11-01T05:15:53.203Z,166.30
2022-11-01T05:21:01.667Z,165.27
2022-11-01T05:26:03.345Z,160.87
2022-11-01T05:31:05.097Z,146.53
2022-11-01T05:36:07.449Z,140.33
2022-11-01T05:41:09.221Z,134.70
2022-11-01T05:46:10.882Z,134.77
2022-11-01T05:51:12.532Z,122.27
2022-11-01T05:56:14.291Z,131.67
2022-11-01T06:01:17.828Z,146.37
2022-11-01T06:06:19.597Z,126.47
2022-11-01T06:11:21.290Z,123.63
2022-11-01T06:16:23.062Z,143.70
2022-11-01T06:21:27.648Z,132.23
2022-11-01T06:26:31.839Z,131.23
2022-11-01T06:31:33.461Z,108.30
2022-11-01T06:36:35.079Z,101.43
2022-11-01T06:41:36.698Z,80.10
2022-11-01T06:46:38.423Z,70.47
2022-11-01T06:51:40.083Z,71.83
2022-11-01T06:56:41.731Z,61.50
2022-11-01T07:01:44.135Z,55.13
2022-11-01T07:06:45.969Z,58.40
2022-11-01T07:11:47.607Z,52.10
2022-11-01T07:16:49.266Z,47.70
2022-11-01T07:21:50.879Z,50.03
2022-11-01T07:26:52.529Z,40.80
2022-11-01T07:31:54.149Z,41.97
2022-11-01T07:36:55.795Z,42.30
2022-11-01T07:41:58.722Z,42.50
2022-11-01T07:47:00.390Z,34.13
2022-11-01T07:52:04.157Z,34.70
2022-11-01T07:57:05.894Z,37.77
2022-11-01T08:02:09.143Z,28.37
2022-11-01T08:07:10.828Z,29.10
2022-11-01T08:12:12.673Z,29.67
2022-11-01T08:17:14.289Z,25.77
2022-11-01T08:22:15.927Z,26.93
2022-11-01T08:27:17.616Z,21.97
2022-11-01T08:32:21.005Z,21.70
2022-11-01T08:37:22.678Z,24.27
2022-11-01T08:42:24.292Z,19.73
2022-11-01T08:47:25.933Z,16.97
2022-11-01T08:52:28.052Z,20.50
2022-11-01T08:57:30.225Z,17.93
2022-11-01T09:02:31.884Z,17.00
2022-11-01T09:07:35.999Z,15.23
2022-11-01T09:12:37.885Z,19.93
2022-11-01T09:17:39.570Z,22.57
2022-11-01T09:22:41.310Z,18.63
2022-11-01T09:27:42.961Z,24.87
2022-11-01T09:32:44.568Z,19.27
2022-11-01T09:37:46.219Z,24.97
2022-11-01T09:42:47.911Z,24.67
2022-11-01T09:47:53.901Z,14.63
2022-11-01T09:52:55.778Z,13.70
2022-11-01T09:58:01.121Z,15.63
2022-11-01T10:03:16.029Z,12.60
2022-11-01T10:08:37.853Z,18.67
2022-11-01T10:13:49.813Z,11.33
2022-11-01T10:18:57.796Z,17.90
2022-11-01T10:23:59.922Z,9.30
2022-11-01T10:29:20.272Z,17.07
2022-11-01T10:34:41.412Z,18.47
2022-11-01T10:39:55.612Z,9.97
2022-11-01T10:45:01.450Z,11.37
2022-11-01T10:50:12.392Z,10.03
2022-11-01T10:55:40.043Z,12.97
2022-11-01T11:00:41.762Z,16.07
2022-11-01T11:05:43.474Z,13.60
2022-11-01T11:10:45.456Z,10.53
2022-11-01T11:15:52.559Z,16.23
2022-11-01T11:21:08.628Z,8.20
2022-11-01T11:26:13.412Z,8.93
2022-11-01T11:31:26.436Z,6.00
2022-11-01T11:36:31.295Z,9.07
2022-11-01T11:41:35.201Z,10.33
2022-11-01T11:46:36.827Z,7.38
2022-11-01T11:51:38.601Z,9.57
2022-11-01T11:56:40.226Z,6.47
2022-11-01T12:01:42.009Z,7.10
2022-11-01T12:06:44.495Z,11.00
2022-11-01T12:11:46.175Z,10.73
2022-11-01T12:16:47.873Z,7.33
2022-11-01T12:21:49.494Z,10.37
2022-11-01T12:26:51.865Z,4.13
2022-11-01T12:31:53.720Z,4.73
2022-11-01T12:37:32.894Z,6.93
2022-11-01T12:42:39.647Z,10.33
2022-11-01T12:47:43.707Z,12.67
2022-11-01T12:53:03.246Z,7.07
2022-11-01T12:58:07.638Z,19.93
2022-11-01T13:03:47.514Z,4.90
2022-11-01T13:09:14.994Z,8.20
2022-11-01T13:14:43.539Z,7.73
2022-11-01T13:20:22.098Z,4.60
2022-11-01T13:25:49.939Z,14.57
2022-11-01T13:30:58.316Z,8.50
2022-11-01T13:36:30.278Z,9.00
2022-11-01T13:41:57.130Z,7.83
2022-11-01T13:46:58.683Z,10.77
2022-11-01T13:52:19.777Z,7.20
2022-11-01T13:57:22.581Z,15.00
2022-11-01T14:02:24.411Z,6.97
2022-11-01T14:07:30.675Z,9.67
2022-11-01T14:12:37.421Z,5.20
2022-11-01T14:17:56.623Z,13.10
2022-11-01T14:22:58.312Z,7.70
2022-11-01T14:28:20.315Z,11.37
2022-11-01T14:33:22.451Z,8.27
2022-11-01T14:38:31.767Z,13.73
2022-11-01T14:43:41.105Z,13.07
2022-11-01T14:49:01.437Z,8.57
2022-11-01T14:54:13.232Z,10.47
2022-11-01T14:59:20.675Z,9.53
2022-11-01T15:04:24.077Z,13.27
2022-11-01T15:09:30.240Z,10.40
2022-11-01T15:14:35.706Z,23.70
2022-11-01T15:19:38.006Z,13.60
2022-11-01T15:24:39.657Z,14.13
2022-11-01T15:29:42.462Z,13.00
2022-11-01T15:34:51.428Z,13.80
2022-11-01T15:39:53.319Z,9.70
2022-11-01T15:44:55.040Z,19.43
2022-11-01T15:49:59.220Z,17.60
2022-11-01T15:55:14.464Z,8.70
2022-11-01T16:00:20.494Z,9.43
2022-11-01T16:05:24.793Z,11.93
2022-11-01T16:10:29.626Z,12.50
2022-11-01T16:15:32.999Z,12.47
2022-11-01T16:20:35.483Z,10.07
2022-11-01T16:25:37.566Z,14.07
2022-11-01T16:30:47.321Z,34.87
2022-11-01T16:36:05.006Z,27.60
2022-11-01T16:41:24.305Z,18.97
2022-11-01T16:46:27.210Z,15.33
2022-11-01T16:51:30.158Z,15.80
2022-11-01T16:56:37.416Z,8.80
2022-11-01T17:01:39.654Z,12.77
2022-11-01T17:06:41.429Z,13.20
2022-11-01T17:11:49.525Z,6.53
2022-11-01T17:16:52.635Z,10.33
2022-11-01T17:21:54.336Z,16.97
2022-11-01T17:26:57.857Z,11.00
2022-11-01T17:32:00.978Z,10.10
2022-11-01T17:37:03.175Z,9.13
2022-11-01T17:42:04.815Z,14.83
2022-11-01T17:47:06.447Z,11.33
2022-11-01T17:52:08.124Z,16.07
2022-11-01T17:57:09.838Z,17.93
2022-11-01T18:02:11.594Z,16.27
2022-11-01T18:07:13.827Z,15.43
2022-11-01T18:12:26.665Z,14.87
2022-11-01T18:23:14.549Z,17.80
2022-11-01T18:28:23.118Z,14.53
2022-11-01T18:34:02.554Z,21.00
2022-11-01T18:39:32.687Z,34.57
2022-11-01T18:44:34.333Z,25.00
2022-11-01T18:49:35.952Z,35.37
2022-11-01T18:54:38.461Z,23.40
2022-11-01T18:59:40.379Z,59.27
2022-11-01T19:04:42.632Z,37.73
2022-11-01T19:09:58.453Z,29.33
2022-11-01T19:15:03.696Z,22.10
2022-11-01T19:20:32.235Z,24.50
2022-11-01T19:25:35.606Z,26.17
2022-11-01T19:30:37.294Z,32.70
2022-11-01T19:35:38.959Z,14.83
2022-11-01T19:40:41.373Z,12.53
2022-11-01T19:45:53.550Z,15.47
2022-11-01T19:50:55.317Z,18.23
2022-11-01T19:56:02.531Z,16.20
2022-11-01T20:01:19.906Z,17.97
2022-11-01T20:06:28.850Z,27.30
2022-11-01T20:11:32.201Z,17.73
2022-11-01T20:16:33.852Z,32.33
2022-11-01T20:21:35.538Z,24.43
2022-11-01T20:26:37.349Z,15.70
2022-11-01T20:31:39.041Z,12.03
2022-11-01T20:36:40.720Z,12.83
2022-11-01T20:41:42.353Z,15.03
2022-11-01T20:46:44.042Z,13.20
2022-11-01T20:51:45.978Z,15.83
2022-11-01T20:56:47.616Z,12.83
2022-11-01T21:01:49.392Z,12.90
2022-11-01T21:06:51.146Z,15.47
2022-11-01T21:11:52.881Z,16.27
2022-11-01T21:16:55.682Z,23.30
2022-11-01T21:21:58.007Z,13.30
2022-11-01T21:27:23.821Z,10.50
2022-11-01T21:32:34.504Z,11.57
2022-11-01T21:37:36.122Z,9.80
2022-11-01T21:42:38.924Z,6.77
2022-11-01T21:47:45.422Z,4.80
2022-11-01T21:52:47.435Z,16.53
2022-11-01T21:57:49.119Z,7.67
2022-11-01T22:02:50.752Z,7.00
2022-11-01T22:07:52.377Z,6.40
2022-11-01T22:12:54.000Z,5.17
2022-11-01T22:17:55.689Z,4.90
2022-11-01T22:22:57.331Z,5.90
2022-11-01T22:27:58.967Z,4.63
2022-11-01T22:33:00.842Z,8.33
2022-11-01T22:38:17.225Z,6.10
2022-11-01T22:43:18.928Z,6.17
2022-11-01T22:48:22.315Z,4.50
2022-11-01T22:53:23.937Z,4.13
2022-11-01T22:58:28.469Z,11.13
2022-11-01T23:03:37.574Z,6.40
2022-11-01T23:08:39.233Z,30.70
2022-11-01T23:13:59.436Z,4.10
2022-11-01T23:19:01.841Z,6.77
2022-11-01T23:24:03.560Z,6.13
2022-11-01T23:29:05.293Z,4.13
2022-11-01T23:34:09.467Z,5.00
2022-11-01T23:39:11.956Z,6.40
2022-11-01T23:44:19.875Z,10.30
2022-11-01T23:49:25.647Z,5.57
2022-11-01T23:54:33.346Z,6.23
2022-11-01T23:59:34.966Z,8.13
